Wetterdaten: Woche 30.09.13 - 06.10.13 (KW40)
Datum Zeit Temp. A. Feuchte A. Luftdruck Regen Wind Richtung Taupunkt Windchill Windben
30.09.2013 00:00 6,0 C 88 % 1017,0 hPa 0,0 l/m 2,6 km/h (1 Bft) O-NO 4,2 C 6,0 C 6,7 km/h (2 Bft)
30.09.2013 01:00 5,2 C 89 % 1016,8 hPa 0,0 l/m 0,6 km/h (0 Bft) NO 3,6 C 5,2 C 2,9 km/h (1 Bft)
30.09.2013 02:00 5,2 C 90 % 1016,7 hPa 0,0 l/m 2,4 km/h (1 Bft) O-NO 3,7 C 5,2 C 6,6 km/h (2 Bft)
30.09.2013 03:00 5,3 C 90 % 1016,5 hPa 0,0 l/m 2,5 km/h (1 Bft) O-NO 3,8 C 5,3 C 6,7 km/h (2 Bft)
30.09.2013 04:00 4,8 C 90 % 1016,3 hPa 0,0 l/m 2,6 km/h (1 Bft) O-NO 3,4 C 4,8 C 6,6 km/h (2 Bft)
30.09.2013 05:00 4,3 C 91 % 1016,1 hPa 0,0 l/m 3,2 km/h (1 Bft) NO 3,1 C 4,3 C 8,0 km/h (2 Bft)
30.09.2013 06:00 4,4 C 92 % 1016,1 hPa 0,0 l/m 5,1 km/h (1 Bft) O-NO 3,2 C 4,3 C 11,2 km/h (2 Bft)
30.09.2013 07:00 4,2 C 92 % 1016,3 hPa 0,0 l/m 5,6 km/h (2 Bft) NO 3,1 C 4,2 C 11,6 km/h (2 Bft)
30.09.2013 08:00 5,1 C 92 % 1016,4 hPa 0,0 l/m 7,0 km/h (2 Bft) O-NO 3,8 C 4,5 C 14,9 km/h (3 Bft)
30.09.2013 09:00 7,2 C 87 % 1016,5 hPa 0,0 l/m 8,3 km/h (2 Bft) O-NO 5,2 C 5,7 C 16,5 km/h (3 Bft)
30.09.2013 10:00 9,0 C 81 % 1016,5 hPa 0,0 l/m 8,9 km/h (2 Bft) O-NO 5,9 C 7,2 C 18,5 km/h (3 Bft)
30.09.2013 11:00 10,8 C 71 % 1016,3 hPa 0,0 l/m 11,9 km/h (2 Bft) O 5,8 C 7,6 C 23,2 km/h (4 Bft)
30.09.2013 12:00 12,1 C 62 % 1015,9 hPa 0,0 l/m 12,7 km/h (3 Bft) O-SO 5,1 C 8,7 C 25,9 km/h (4 Bft)
30.09.2013 13:00 12,7 C 60 % 1015,7 hPa 0,0 l/m 12,1 km/h (2 Bft) O-NO 5,0 C 9,6 C 23,7 km/h (4 Bft)
30.09.2013 14:00 13,0 C 61 % 1015,3 hPa 0,0 l/m 10,5 km/h (2 Bft) O 5,6 C 10,7 C 22,0 km/h (4 Bft)
30.09.2013 15:00 13,3 C 56 % 1015,2 hPa 0,0 l/m 11,4 km/h (2 Bft) O 4,8 C 10,6 C 23,2 km/h (4 Bft)
30.09.2013 16:00 13,4 C 55 % 1014,9 hPa 0,0 l/m 10,4 km/h (2 Bft) O-NO 4,6 C 11,2 C 20,5 km/h (4 Bft)
30.09.2013 17:00 12,8 C 58 % 1014,6 hPa 0,0 l/m 8,4 km/h (2 Bft) O-NO 4,8 C 11,6 C 19,2 km/h (3 Bft)
30.09.2013 18:00 11,5 C 63 % 1014,8 hPa 0,0 l/m 7,1 km/h (2 Bft) O-NO 4,6 C 10,8 C 15,2 km/h (3 Bft)
30.09.2013 19:00 10,1 C 69 % 1015,3 hPa 0,0 l/m 5,0 km/h (1 Bft) O-NO 4,6 C 10,1 C 11,0 km/h (2 Bft)
30.09.2013 20:00 8,7 C 76 % 1015,6 hPa 0,0 l/m 4,1 km/h (1 Bft) O-NO 4,7 C 8,7 C 9,3 km/h (2 Bft)
30.09.2013 21:00 7,9 C 80 % 1016,1 hPa 0,0 l/m 4,5 km/h (1 Bft) O-NO 4,6 C 7,9 C 9,9 km/h (2 Bft)
30.09.2013 22:00 7,4 C 81 % 1016,3 hPa 0,0 l/m 4,0 km/h (1 Bft) O-NO 4,4 C 7,4 C 9,0 km/h (2 Bft)
30.09.2013 23:00 6,9 C 83 % 1016,4 hPa 0,0 l/m 3,8 km/h (1 Bft) O-NO 4,2 C 6,9 C 8,2 km/h (2 Bft)
01.10.2013 00:00 6,2 C 85 % 1016,5 hPa 0,0 l/m 4,0 km/h (1 Bft) NO 3,9 C 6,2 C 9,4 km/h (2 Bft)
01.10.2013 01:00 5,6 C 87 % 1016,6 hPa 0,0 l/m 3,6 km/h (1 Bft) NO 3,6 C 5,6 C 8,2 km/h (2 Bft)
01.10.2013 02:00 5,4 C 88 % 1016,7 hPa 0,0 l/m 3,9 km/h (1 Bft) NO 3,5 C 5,4 C 8,4 km/h (2 Bft)
01.10.2013 03:00 4,9 C 88 % 1016,7 hPa 0,0 l/m 3,9 km/h (1 Bft) NO 3,1 C 4,9 C 9,4 km/h (2 Bft)
01.10.2013 04:00 4,5 C 89 % 1016,8 hPa 0,0 l/m 3,1 km/h (1 Bft) NO 2,8 C 4,5 C 7,8 km/h (2 Bft)
01.10.2013 05:00 3,8 C 91 % 1016,9 hPa 0,0 l/m 2,4 km/h (1 Bft) NO 2,4 C 3,8 C 6,5 km/h (2 Bft)
01.10.2013 06:00 2,6 C 91 % 1017,1 hPa 0,0 l/m 1,4 km/h (1 Bft) N-NO 1,4 C 2,6 C 2,8 km/h (1 Bft)
01.10.2013 07:00 2,6 C 93 % 1017,4 hPa 0,0 l/m 2,1 km/h (1 Bft) N-NO 1,5 C 2,6 C 4,7 km/h (1 Bft)
01.10.2013 08:00 4,0 C 93 % 1017,7 hPa 0,0 l/m 3,1 km/h (1 Bft) NO 3,0 C 4,0 C 7,2 km/h (2 Bft)
01.10.2013 09:00 6,4 C 88 % 1018,0 hPa 0,0 l/m 5,4 km/h (1 Bft) O 4,6 C 6,3 C 10,9 km/h (2 Bft)
01.10.2013 10:00 8,7 C 81 % 1018,3 hPa 0,0 l/m 5,9 km/h (2 Bft) O 5,6 C 8,4 C 11,6 km/h (2 Bft)
01.10.2013 11:00 10,9 C 72 % 1018,6 hPa 0,0 l/m 8,0 km/h (2 Bft) O 5,9 C 9,8 C 15,6 km/h (3 Bft)
01.10.2013 12:00 12,2 C 63 % 1018,5 hPa 0,0 l/m 9,4 km/h (2 Bft) O-NO 5,2 C 10,4 C 20,4 km/h (4 Bft)
01.10.2013 13:00 13,0 C 58 % 1018,4 hPa 0,0 l/m 10,2 km/h (2 Bft) O 4,8 C 10,8 C 21,3 km/h (4 Bft)
01.10.2013 14:00 13,2 C 57 % 1018,2 hPa 0,0 l/m 8,4 km/h (2 Bft) O-NO 4,8 C 12,0 C 17,2 km/h (3 Bft)
01.10.2013 15:00 13,2 C 58 % 1018,0 hPa 0,0 l/m 8,7 km/h (2 Bft) NO 5,1 C 11,8 C 18,1 km/h (3 Bft)
01.10.2013 16:00 13,2 C 58 % 1018,0 hPa 0,0 l/m 8,6 km/h (2 Bft) O-NO 5,0 C 11,9 C 17,0 km/h (3 Bft)
01.10.2013 17:00 12,5 C 59 % 1018,3 hPa 0,0 l/m 8,2 km/h (2 Bft) O-NO 4,8 C 11,3 C 16,9 km/h (3 Bft)
01.10.2013 18:00 11,0 C 67 % 1018,7 hPa 0,0 l/m 5,2 km/h (1 Bft) NO 5,0 C 10,8 C 11,0 km/h (2 Bft)
01.10.2013 19:00 8,4 C 76 % 1019,3 hPa 0,0 l/m 2,2 km/h (1 Bft) O-NO 4,5 C 8,4 C 4,8 km/h (1 Bft)
01.10.2013 20:00 5,8 C 85 % 1019,9 hPa 0,0 l/m 1,3 km/h (1 Bft) N-NO 3,4 C 5,8 C 2,7 km/h (1 Bft)
01.10.2013 21:00 5,3 C 87 % 1020,5 hPa 0,0 l/m 1,7 km/h (1 Bft) O-NO 3,3 C 5,3 C 4,1 km/h (1 Bft)
01.10.2013 22:00 6,5 C 84 % 1020,9 hPa 0,0 l/m 2,0 km/h (1 Bft) O-NO 3,9 C 6,5 C 5,7 km/h (2 Bft)
01.10.2013 23:00 6,1 C 85 % 1021,2 hPa 0,0 l/m 1,8 km/h (1 Bft) O-NO 3,7 C 6,1 C 4,9 km/h (1 Bft)
02.10.2013 00:00 5,6 C 86 % 1021,5 hPa 0,0 l/m 2,2 km/h (1 Bft) O-NO 3,4 C 5,6 C 6,1 km/h (2 Bft)
02.10.2013 01:00 4,9 C 87 % 1021,6 hPa 0,0 l/m 1,1 km/h (1 Bft) O 3,0 C 4,9 C 4,3 km/h (1 Bft)
02.10.2013 02:00 4,3 C 88 % 1022,2 hPa 0,0 l/m 0,8 km/h (0 Bft) O-NO 2,5 C 4,3 C 3,9 km/h (1 Bft)
02.10.2013 03:00 2,5 C 90 % 1022,5 hPa 0,0 l/m 0,1 km/h (0 Bft) N 1,0 C 2,5 C 0,5 km/h (0 Bft)
02.10.2013 04:00 1,9 C 92 % 1022,7 hPa 0,0 l/m 0,4 km/h (0 Bft) O-NO 0,8 C 1,9 C 2,3 km/h (1 Bft)
02.10.2013 05:00 2,3 C 92 % 1022,9 hPa 0,0 l/m 0,7 km/h (0 Bft) O-NO 1,1 C 2,3 C 2,9 km/h (1 Bft)
02.10.2013 06:00 2,0 C 91 % 1023,4 hPa 0,0 l/m 0,2 km/h (0 Bft) N 0,7 C 2,0 C 0,9 km/h (0 Bft)
02.10.2013 07:00 0,7 C 92 % 1024,0 hPa 0,0 l/m 0,1 km/h (0 Bft) N -0,5 C 0,7 C 0,8 km/h (0 Bft)
02.10.2013 08:00 1,2 C 93 % 1024,7 hPa 0,0 l/m 0,6 km/h (0 Bft) O 0,3 C 1,2 C 2,0 km/h (1 Bft)
02.10.2013 09:00 6,3 C 83 % 1025,0 hPa 0,0 l/m 3,7 km/h (1 Bft) O-SO 3,5 C 6,3 C 9,4 km/h (2 Bft)
02.10.2013 10:00 9,2 C 69 % 1025,3 hPa 0,0 l/m 6,7 km/h (2 Bft) O-SO 3,7 C 8,8 C 15,6 km/h (3 Bft)
02.10.2013 11:00 11,2 C 57 % 1025,2 hPa 0,0 l/m 7,1 km/h (2 Bft) SO 3,0 C 10,6 C 16,2 km/h (3 Bft)
02.10.2013 12:00 12,6 C 49 % 1025,3 hPa 0,0 l/m 8,0 km/h (2 Bft) SO 2,2 C 11,6 C 18,1 km/h (3 Bft)
02.10.2013 13:00 13,6 C 43 % 1025,3 hPa 0,0 l/m 8,6 km/h (2 Bft) O-SO 1,2 C 12,4 C 20,0 km/h (4 Bft)
02.10.2013 14:00 14,2 C 40 % 1025,0 hPa 0,0 l/m 8,5 km/h (2 Bft) O-SO 0,9 C 13,0 C 19,6 km/h (3 Bft)
02.10.2013 15:00 14,3 C 41 % 1024,8 hPa 0,0 l/m 8,1 km/h (2 Bft) O-SO 1,3 C 13,3 C 19,0 km/h (3 Bft)
02.10.2013 16:00 14,3 C 44 % 1024,6 hPa 0,0 l/m 7,1 km/h (2 Bft) O-SO 2,1 C 13,7 C 18,0 km/h (3 Bft)
02.10.2013 17:00 13,2 C 48 % 1024,7 hPa 0,0 l/m 8,1 km/h (2 Bft) O-SO 2,3 C 12,2 C 18,8 km/h (3 Bft)
02.10.2013 18:00 11,7 C 54 % 1025,0 hPa 0,0 l/m 4,6 km/h (1 Bft) SO 2,7 C 11,7 C 11,1 km/h (2 Bft)
02.10.2013 19:00 9,5 C 64 % 1025,4 hPa 0,0 l/m 3,9 km/h (1 Bft) O 3,1 C 9,5 C 8,6 km/h (2 Bft)
02.10.2013 20:00 8,9 C 68 % 1025,6 hPa 0,0 l/m 4,8 km/h (1 Bft) O-SO 3,2 C 8,9 C 11,4 km/h (2 Bft)
02.10.2013 21:00 8,2 C 70 % 1026,1 hPa 0,0 l/m 4,2 km/h (1 Bft) O-NO 3,1 C 8,2 C 10,9 km/h (2 Bft)
02.10.2013 22:00 7,1 C 73 % 1026,4 hPa 0,0 l/m 2,8 km/h (1 Bft) O-SO 2,6 C 7,1 C 8,4 km/h (2 Bft)
02.10.2013 23:00 6,1 C 76 % 1026,7 hPa 0,0 l/m 3,5 km/h (1 Bft) O 2,2 C 6,1 C 9,5 km/h (2 Bft)
03.10.2013 00:00 5,5 C 77 % 1026,9 hPa 0,0 l/m 3,3 km/h (1 Bft) SO 1,8 C 5,5 C 9,3 km/h (2 Bft)
03.10.2013 01:00 4,7 C 80 % 1026,9 hPa 0,0 l/m 2,9 km/h (1 Bft) O-SO 1,4 C 4,7 C 7,8 km/h (2 Bft)
03.10.2013 02:00 3,8 C 82 % 1026,8 hPa 0,0 l/m 2,0 km/h (1 Bft) SO 1,1 C 3,8 C 5,3 km/h (1 Bft)
03.10.2013 03:00 3,4 C 83 % 1026,4 hPa 0,0 l/m 3,8 km/h (1 Bft) O-NO 0,8 C 3,4 C 9,4 km/h (2 Bft)
03.10.2013 04:00 3,2 C 84 % 1026,3 hPa 0,0 l/m 4,8 km/h (1 Bft) O 0,8 C 3,2 C 11,6 km/h (2 Bft)
03.10.2013 05:00 2,6 C 86 % 1026,3 hPa 0,0 l/m 5,7 km/h (2 Bft) O-SO 0,5 C 2,5 C 12,8 km/h (3 Bft)
03.10.2013 06:00 2,2 C 88 % 1026,3 hPa 0,0 l/m 4,5 km/h (1 Bft) O 0,3 C 2,2 C 11,4 km/h (2 Bft)
03.10.2013 07:00 1,9 C 88 % 1026,4 hPa 0,0 l/m 4,8 km/h (1 Bft) SO 0,2 C 1,9 C 12,5 km/h (2 Bft)
03.10.2013 08:00 2,5 C 88 % 1026,5 hPa 0,0 l/m 4,3 km/h (1 Bft) O-SO 0,6 C 2,5 C 11,2 km/h (2 Bft)
03.10.2013 09:00 4,8 C 81 % 1026,6 hPa 0,0 l/m 5,3 km/h (1 Bft) S-SO 1,8 C 4,8 C 12,4 km/h (2 Bft)
03.10.2013 10:00 6,9 C 73 % 1026,8 hPa 0,0 l/m 6,2 km/h (2 Bft) SO 2,5 C 6,6 C 14,8 km/h (3 Bft)
03.10.2013 11:00 8,8 C 67 % 1026,5 hPa 0,0 l/m 7,7 km/h (2 Bft) O-SO 3,0 C 7,7 C 19,6 km/h (3 Bft)
03.10.2013 12:00 11,0 C 55 % 1025,7 hPa 0,0 l/m 9,5 km/h (2 Bft) O-SO 2,4 C 9,0 C 23,1 km/h (4 Bft)
03.10.2013 13:00 12,6 C 47 % 1025,3 hPa 0,0 l/m 10,4 km/h (2 Bft) O-SO 1,5 C 10,4 C 22,0 km/h (4 Bft)
03.10.2013 14:00 13,1 C 47 % 1024,8 hPa 0,0 l/m 11,0 km/h (2 Bft) O-SO 2,0 C 10,6 C 24,0 km/h (4 Bft)
03.10.2013 15:00 13,5 C 47 % 1024,2 hPa 0,0 l/m 10,3 km/h (2 Bft) O 2,4 C 11,4 C 23,9 km/h (4 Bft)
03.10.2013 16:00 13,5 C 46 % 1024,1 hPa 0,0 l/m 9,5 km/h (2 Bft) O 2,0 C 11,7 C 22,9 km/h (4 Bft)
03.10.2013 17:00 12,5 C 48 % 1023,9 hPa 0,0 l/m 7,5 km/h (2 Bft) SO 1,7 C 11,8 C 18,8 km/h (3 Bft)
03.10.2013 18:00 11,0 C 54 % 1023,9 hPa 0,0 l/m 4,8 km/h (1 Bft) SO 2,0 C 11,0 C 12,5 km/h (2 Bft)
03.10.2013 19:00 9,6 C 62 % 1024,0 hPa 0,0 l/m 3,8 km/h (1 Bft) O-SO 2,5 C 9,6 C 10,6 km/h (2 Bft)
03.10.2013 20:00 8,7 C 67 % 1024,1 hPa 0,0 l/m 4,6 km/h (1 Bft) SO 2,9 C 8,7 C 12,4 km/h (2 Bft)
03.10.2013 21:00 8,0 C 68 % 1023,9 hPa 0,0 l/m 6,4 km/h (2 Bft) O-SO 2,5 C 7,7 C 16,0 km/h (3 Bft)
03.10.2013 22:00 7,3 C 69 % 1023,6 hPa 0,0 l/m 6,7 km/h (2 Bft) O-SO 2,0 C 7,0 C 15,8 km/h (3 Bft)
03.10.2013 23:00 6,6 C 70 % 1023,3 hPa 0,0 l/m 4,7 km/h (1 Bft) O-SO 1,5 C 6,6 C 11,5 km/h (2 Bft)
04.10.2013 00:00 5,6 C 73 % 1023,1 hPa 0,0 l/m 4,4 km/h (1 Bft) O 1,2 C 5,6 C 11,0 km/h (2 Bft)
04.10.2013 01:00 4,9 C 76 % 1022,6 hPa 0,0 l/m 4,4 km/h (1 Bft) O-SO 1,0 C 4,9 C 11,2 km/h (2 Bft)
04.10.2013 02:00 4,3 C 78 % 1022,8 hPa 0,0 l/m 2,4 km/h (1 Bft) SO 0,7 C 4,3 C 7,2 km/h (2 Bft)
04.10.2013 03:00 3,5 C 81 % 1022,4 hPa 0,0 l/m 2,5 km/h (1 Bft) O-SO 0,5 C 3,5 C 7,2 km/h (2 Bft)
04.10.2013 04:00 3,0 C 83 % 1021,9 hPa 0,0 l/m 2,4 km/h (1 Bft) O-SO 0,4 C 3,0 C 6,4 km/h (2 Bft)
04.10.2013 05:00 3,2 C 82 % 1021,4 hPa 0,0 l/m 3,0 km/h (1 Bft) O-SO 0,4 C 3,2 C 8,4 km/h (2 Bft)
04.10.2013 06:00 2,6 C 83 % 1021,1 hPa 0,0 l/m 2,3 km/h (1 Bft) O-NO 0,1 C 2,6 C 6,4 km/h (2 Bft)
04.10.2013 07:00 2,7 C 83 % 1020,9 hPa 0,0 l/m 2,3 km/h (1 Bft) SO 0,1 C 2,7 C 6,3 km/h (2 Bft)
04.10.2013 08:00 3,1 C 82 % 1020,8 hPa 0,0 l/m 3,7 km/h (1 Bft) O-SO 0,2 C 3,1 C 9,4 km/h (2 Bft)
04.10.2013 09:00 5,1 C 75 % 1020,6 hPa 0,0 l/m 4,1 km/h (1 Bft) S 1,0 C 5,1 C 10,8 km/h (2 Bft)
04.10.2013 10:00 7,9 C 64 % 1020,6 hPa 0,0 l/m 4,5 km/h (1 Bft) S 1,6 C 7,8 C 11,8 km/h (2 Bft)
04.10.2013 11:00 9,8 C 58 % 1020,5 hPa 0,0 l/m 4,7 km/h (1 Bft) S-SO 1,9 C 9,8 C 11,8 km/h (2 Bft)
04.10.2013 12:00 11,4 C 54 % 1020,3 hPa 0,0 l/m 4,8 km/h (1 Bft) S 2,5 C 11,4 C 10,6 km/h (2 Bft)
04.10.2013 13:00 12,9 C 52 % 1019,8 hPa 0,0 l/m 5,8 km/h (2 Bft) O-SO 3,3 C 12,8 C 15,6 km/h (3 Bft)
04.10.2013 14:00 13,6 C 50 % 1019,1 hPa 0,0 l/m 5,3 km/h (1 Bft) S 3,5 C 13,6 C 13,3 km/h (3 Bft)
04.10.2013 15:00 14,5 C 50 % 1019,2 hPa 0,0 l/m 3,0 km/h (1 Bft) SO 4,3 C 14,5 C 8,3 km/h (2 Bft)
04.10.2013 16:00 14,8 C 50 % 1018,7 hPa 0,0 l/m 3,9 km/h (1 Bft) S-SO 4,5 C 14,8 C 10,5 km/h (2 Bft)
04.10.2013 17:00 14,2 C 52 % 1018,4 hPa 0,0 l/m 3,1 km/h (1 Bft) S 4,4 C 14,2 C 8,3 km/h (2 Bft)
04.10.2013 18:00 13,7 C 54 % 1018,3 hPa 0,0 l/m 2,2 km/h (1 Bft) SO 4,6 C 13,7 C 6,8 km/h (2 Bft)
04.10.2013 19:00 13,3 C 56 % 1018,5 hPa 0,0 l/m 1,6 km/h (1 Bft) S-SO 4,8 C 13,3 C 4,9 km/h (1 Bft)
04.10.2013 20:00 12,1 C 70 % 1018,4 hPa 0,0 l/m 0,1 km/h (0 Bft) N 6,7 C 12,1 C 0,4 km/h (0 Bft)
04.10.2013 21:00 10,5 C 84 % 1018,0 hPa 0,0 l/m 0,0 km/h (0 Bft) N 7,8 C 10,5 C 0,0 km/h (0 Bft)
04.10.2013 22:00 10,2 C 78 % 1017,8 hPa 0,0 l/m 0,0 km/h (0 Bft) N 6,6 C 10,2 C 0,0 km/h (0 Bft)
04.10.2013 23:00 9,1 C 84 % 1017,5 hPa 0,0 l/m 0,0 km/h (0 Bft) N 6,4 C 9,1 C 0,0 km/h (0 Bft)
05.10.2013 00:00 7,9 C 90 % 1017,2 hPa 0,0 l/m 0,0 km/h (0 Bft) N 6,3 C 7,9 C 0,0 km/h (0 Bft)
05.10.2013 01:00 7,5 C 92 % 1016,9 hPa 0,0 l/m 0,0 km/h (0 Bft) N 6,2 C 7,5 C 0,0 km/h (0 Bft)
05.10.2013 02:00 7,7 C 92 % 1016,9 hPa 0,0 l/m 0,0 km/h (0 Bft) N 6,4 C 7,7 C 0,0 km/h (0 Bft)
05.10.2013 03:00 7,7 C 91 % 1016,4 hPa 0,0 l/m 0,0 km/h (0 Bft) N 6,4 C 7,7 C 0,0 km/h (0 Bft)
05.10.2013 04:00 7,9 C 91 % 1016,0 hPa 0,0 l/m 0,0 km/h (0 Bft) N 6,6 C 7,9 C 0,0 km/h (0 Bft)
05.10.2013 05:00 8,7 C 89 % 1016,0 hPa 0,0 l/m 0,0 km/h (0 Bft) N 7,0 C 8,7 C 0,0 km/h (0 Bft)
05.10.2013 06:00 9,2 C 89 % 1016,2 hPa 0,8 l/m 0,0 km/h (0 Bft) N 7,4 C 9,2 C 0,0 km/h (0 Bft)
05.10.2013 07:00 9,0 C 91 % 1016,4 hPa 1,0 l/m 0,0 km/h (0 Bft) N 7,6 C 9,0 C 0,0 km/h (0 Bft)
05.10.2013 08:00 9,3 C 92 % 1016,5 hPa 0,4 l/m 0,0 km/h (0 Bft) N 8,0 C 9,3 C 0,3 km/h (0 Bft)
05.10.2013 09:00 10,3 C 93 % 1016,5 hPa 0,6 l/m 0,3 km/h (0 Bft) N 9,3 C 10,3 C 1,2 km/h (1 Bft)
05.10.2013 10:00 11,0 C 93 % 1016,9 hPa 0,8 l/m 0,0 km/h (0 Bft) N 10,0 C 11,0 C 0,0 km/h (0 Bft)
05.10.2013 11:00 11,5 C 93 % 1017,2 hPa 1,0 l/m 0,0 km/h (0 Bft) N 10,5 C 11,5 C 0,0 km/h (0 Bft)
05.10.2013 12:00 11,8 C 93 % 1017,5 hPa 2,2 l/m 0,0 km/h (0 Bft) N 10,7 C 11,8 C 0,0 km/h (0 Bft)
05.10.2013 13:00 12,2 C 94 % 1017,6 hPa 1,4 l/m 0,0 km/h (0 Bft) N 11,3 C 12,2 C 0,0 km/h (0 Bft)
05.10.2013 14:00 12,7 C 94 % 1017,3 hPa 0,6 l/m 0,0 km/h (0 Bft) N 11,7 C 12,7 C 0,0 km/h (0 Bft)
05.10.2013 15:00 13,0 C 94 % 1017,5 hPa 0,2 l/m 0,0 km/h (0 Bft) N 12,1 C 13,0 C 0,0 km/h (0 Bft)
05.10.2013 16:00 13,5 C 94 % 1017,7 hPa 0,0 l/m 0,0 km/h (0 Bft) N 12,5 C 13,5 C 0,0 km/h (0 Bft)
05.10.2013 17:00 13,6 C 93 % 1017,9 hPa 0,0 l/m 0,0 km/h (0 Bft) N 12,5 C 13,6 C 0,0 km/h (0 Bft)
05.10.2013 18:00 13,5 C 93 % 1018,4 hPa 0,0 l/m 0,0 km/h (0 Bft) N 12,4 C 13,5 C 0,0 km/h (0 Bft)
05.10.2013 19:00 13,2 C 94 % 1018,9 hPa 0,0 l/m 0,0 km/h (0 Bft) N 12,3 C 13,2 C 0,0 km/h (0 Bft)
05.10.2013 20:00 13,0 C 94 % 1019,4 hPa 0,0 l/m 0,0 km/h (0 Bft) N 12,1 C 13,0 C 0,0 km/h (0 Bft)
05.10.2013 21:00 13,0 C 95 % 1019,7 hPa 0,0 l/m 0,0 km/h (0 Bft) N 12,2 C 13,0 C 0,0 km/h (0 Bft)
05.10.2013 22:00 12,6 C 95 % 1020,1 hPa 0,0 l/m 0,0 km/h (0 Bft) N 11,8 C 12,6 C 0,0 km/h (0 Bft)
05.10.2013 23:00 12,3 C 95 % 1020,5 hPa 0,0 l/m 0,0 km/h (0 Bft) N 11,6 C 12,3 C 0,0 km/h (0 Bft)
06.10.2013 00:00 12,3 C 96 % 1020,7 hPa 0,0 l/m 0,3 km/h (0 Bft) N-NW 11,7 C 12,3 C 2,0 km/h (1 Bft)
06.10.2013 01:00 12,7 C 95 % 1020,9 hPa 0,0 l/m 0,7 km/h (0 Bft) W-NW 11,9 C 12,7 C 3,2 km/h (1 Bft)
06.10.2013 02:00 12,7 C 96 % 1021,2 hPa 0,0 l/m 1,4 km/h (1 Bft) NW 12,0 C 12,7 C 1,6 km/h (1 Bft)
06.10.2013 03:00 12,4 C 95 % 1021,4 hPa 0,0 l/m 0,0 km/h (0 Bft) N 11,6 C 12,4 C 0,0 km/h (0 Bft)
06.10.2013 04:00 12,2 C 95 % 1021,7 hPa 0,0 l/m 0,0 km/h (0 Bft) N 11,4 C 12,2 C 0,0 km/h (0 Bft)
06.10.2013 05:00 12,2 C 95 % 1022,1 hPa 0,0 l/m 0,0 km/h (0 Bft) N 11,4 C 12,2 C 0,0 km/h (0 Bft)
06.10.2013 06:00 12,2 C 95 % 1022,5 hPa 0,0 l/m 0,0 km/h (0 Bft) N 11,4 C 12,2 C 0,0 km/h (0 Bft)
06.10.2013 07:00 12,2 C 95 % 1022,9 hPa 0,0 l/m 0,0 km/h (0 Bft) N 11,4 C 12,2 C 0,0 km/h (0 Bft)
06.10.2013 08:00 11,9 C 96 % 1023,4 hPa 0,0 l/m 0,0 km/h (0 Bft) N 11,3 C 11,9 C 0,0 km/h (0 Bft)
06.10.2013 09:00 12,2 C 96 % 1023,9 hPa 0,0 l/m 0,0 km/h (0 Bft) N 11,6 C 12,2 C 0,0 km/h (0 Bft)
06.10.2013 10:00 12,8 C 96 % 1024,3 hPa 0,0 l/m 0,0 km/h (0 Bft) N 12,1 C 12,8 C 0,0 km/h (0 Bft)
06.10.2013 11:00 13,2 C 95 % 1024,7 hPa 0,0 l/m 0,0 km/h (0 Bft) N 12,4 C 13,2 C 0,0 km/h (0 Bft)
06.10.2013 12:00 13,8 C 93 % 1025,0 hPa 0,0 l/m 0,0 km/h (0 Bft) N 12,7 C 13,8 C 0,0 km/h (0 Bft)
06.10.2013 13:00 14,6 C 90 % 1025,1 hPa 0,0 l/m 0,0 km/h (0 Bft) N 13,0 C 14,6 C 0,0 km/h (0 Bft)
06.10.2013 14:00 14,6 C 89 % 1025,1 hPa 0,0 l/m 0,0 km/h (0 Bft) N 12,9 C 14,6 C 0,0 km/h (0 Bft)
06.10.2013 15:00 14,8 C 89 % 1025,1 hPa 0,0 l/m 0,8 km/h (0 Bft) SW 13,0 C 14,8 C 3,1 km/h (1 Bft)
06.10.2013 16:00 14,6 C 89 % 1025,2 hPa 0,0 l/m 0,2 km/h (0 Bft) N 12,8 C 14,6 C 0,8 km/h (0 Bft)
06.10.2013 17:00 14,3 C 90 % 1025,3 hPa 0,0 l/m 0,0 km/h (0 Bft) N 12,7 C 14,3 C 0,0 km/h (0 Bft)
06.10.2013 18:00 13,8 C 91 % 1025,7 hPa 0,0 l/m 0,0 km/h (0 Bft) N 12,4 C 13,8 C 0,0 km/h (0 Bft)
06.10.2013 19:00 13,2 C 93 % 1026,0 hPa 0,0 l/m 0,0 km/h (0 Bft) N 12,1 C 13,2 C 0,0 km/h (0 Bft)
06.10.2013 20:00 12,9 C 94 % 1026,2 hPa 0,0 l/m 0,0 km/h (0 Bft) N 11,9 C 12,9 C 0,0 km/h (0 Bft)
06.10.2013 21:00 12,8 C 94 % 1026,4 hPa 0,0 l/m 0,1 km/h (0 Bft) N 11,8 C 12,8 C 0,8 km/h (0 Bft)
06.10.2013 22:00 12,7 C 94 % 1026,5 hPa 0,0 l/m 0,0 km/h (0 Bft) N 11,7 C 12,7 C 0,1 km/h (0 Bft)
06.10.2013 23:00 12,5 C 94 % 1026,7 hPa 0,0 l/m 0,0 km/h (0 Bft) N 11,6 C 12,5 C 0,0 km/h (0 Bft)
Min-Datum _ 02.10.13 02.10.13 30.09.13 - 30.09.13 - 02.10.13 02.10.13 30.09.13
_ Min-Zeit 07:45 14:15 16:55 - 01:40 - 07:45 07:45 01:40
Minimum _ -0,2 C 39 % 1014,6 hPa - 0,0 km/h (0 Bft) - -1,5 C -0,2 C 0,0 km/h (0 Bft)
Max-Datum _ 04.10.13 06.10.13 03.10.13 05.10.13 30.09.13 - 06.10.13 04.10.13 03.10.13
_ Max-Zeit 16:00 00:15 01:00 12:25 12:10 - 13:20 16:00 12:35
Maximum _ 14,9 C 96 % 1027,0 hPa 2,2 l/m 16,3 km/h
O-SO (3 Bft)
- 13,2 C 14,9 C 35,4 km/h
O (5 Bft)
Durchschnitt _ 9,1 C 79 % 1020,8 hPa #9,0 l/m 3,5 km/h (1 Bft) O-NO 5,3 C 8,8 C 8,1 km/h (2 Bft)